Withamsville, Ohio
Current Conditions -  °F | °C
As of 6:53 PM on Saturday 20 Dec 2014 (Local Time) from KLUK Reporting Station
Overcast Overcast  
Wind Chill: 31°   Ceiling: 2100
Heat Index: 31°   Visibility: 7mi
Dew Point: 27°   Wind: 3mph
Humidity: 85%   Direction: 40°NE
Pressure: 30.32"   Gusts: NA
Location:  39.0659°N, 84.278°W
Report Text: KLUK 202353Z 04003KT 7SM OVC021 M01/M03 A3032 RMK AO2 SLP271 T10061028 10006 21006 51014
Loading
Personal Weather Stations






























Interactive Weather Map New forecast layout! Learn more

10-Day Weather Forecast

Advertisements
Track Severe Weather on mobile